createdAt,value
2022-08-24T00:03:59.859Z,23.30
2022-08-24T00:08:59.581Z,23.20
2022-08-24T00:13:58.336Z,23.10
2022-08-24T00:18:57.109Z,23.10
2022-08-24T00:23:56.897Z,23.00
2022-08-24T00:28:55.274Z,22.90
2022-08-24T00:33:53.606Z,22.90
2022-08-24T00:38:52.567Z,22.80
2022-08-24T00:43:57.315Z,22.80
2022-08-24T00:49:02.745Z,22.80
2022-08-24T00:54:06.999Z,22.80
2022-08-24T00:59:11.529Z,22.70
2022-08-24T01:04:15.676Z,22.60
2022-08-24T01:09:14.201Z,22.60
2022-08-24T01:14:17.631Z,22.50
2022-08-24T01:19:23.675Z,22.50
2022-08-24T01:24:23.511Z,22.50
2022-08-24T01:29:26.321Z,22.50
2022-08-24T01:34:24.897Z,22.40
2022-08-24T01:39:28.853Z,22.40
2022-08-24T01:44:29.361Z,22.30
2022-08-24T01:49:32.354Z,22.20
2022-08-24T01:54:32.531Z,22.20
2022-08-24T01:59:31.241Z,22.20
2022-08-24T02:04:29.685Z,22.20
2022-08-24T02:09:32.866Z,22.10
2022-08-24T02:14:34.339Z,22.10
2022-08-24T02:19:34.384Z,22.00
2022-08-24T02:24:33.156Z,22.00
2022-08-24T02:29:33.690Z,21.90
2022-08-24T02:34:32.082Z,21.90
2022-08-24T02:39:30.682Z,21.80
2022-08-24T02:44:35.147Z,21.80
2022-08-24T02:49:33.512Z,21.70
2022-08-24T02:54:32.095Z,21.60
2022-08-24T02:59:30.820Z,21.60
2022-08-24T03:04:30.715Z,21.50
2022-08-24T03:09:31.858Z,21.50
2022-08-24T03:14:30.433Z,21.40
2022-08-24T03:19:30.263Z,21.40
2022-08-24T03:24:28.818Z,21.30
2022-08-24T03:29:27.934Z,21.30
2022-08-24T03:34:33.336Z,21.20
2022-08-24T03:39:31.945Z,21.20
2022-08-24T03:44:30.230Z,21.10
2022-08-24T03:49:29.107Z,21.10
2022-08-24T03:54:30.200Z,21.00
2022-08-24T03:59:28.573Z,21.00
2022-08-24T04:04:30.467Z,21.00
2022-08-24T04:09:30.227Z,21.00
2022-08-24T04:14:28.922Z,21.00
2022-08-24T04:19:34.721Z,20.90
2022-08-24T04:24:34.498Z,20.90
2022-08-24T04:29:34.162Z,20.90
2022-08-24T04:34:32.473Z,20.80
2022-08-24T04:39:30.856Z,20.80
2022-08-24T04:44:50.454Z,20.70
2022-08-24T04:49:52.684Z,20.70
2022-08-24T04:54:51.529Z,20.70
2022-08-24T04:59:59.214Z,20.70
2022-08-24T05:04:58.127Z,20.60
2022-08-24T05:09:56.582Z,20.60
2022-08-24T05:14:58.952Z,20.70
2022-08-24T05:19:58.512Z,20.70
2022-08-24T05:24:56.876Z,20.80
2022-08-24T05:29:55.907Z,20.80
2022-08-24T05:34:56.315Z,20.90
2022-08-24T05:39:55.490Z,21.00
2022-08-24T05:44:53.828Z,21.10
2022-08-24T05:49:54.221Z,21.20
2022-08-24T05:54:56.096Z,21.40
2022-08-24T05:59:54.834Z,21.50
2022-08-24T06:04:53.828Z,21.70
2022-08-24T06:09:54.230Z,21.80
2022-08-24T06:14:52.612Z,22.00
2022-08-24T06:19:54.563Z,22.20
2022-08-24T06:25:11.695Z,22.40
2022-08-24T06:30:12.586Z,22.60
2022-08-24T06:35:16.551Z,22.80
2022-08-24T06:40:16.761Z,22.90
2022-08-24T06:45:15.699Z,23.10
2022-08-24T06:50:14.298Z,23.20
2022-08-24T06:55:13.044Z,23.50
2022-08-24T07:00:14.775Z,23.70
2022-08-24T07:05:14.061Z,23.90
2022-08-24T07:10:31.097Z,24.20
2022-08-24T07:15:31.196Z,24.40
2022-08-24T07:20:43.691Z,24.50
2022-08-24T07:26:09.434Z,24.70
2022-08-24T07:31:13.811Z,24.90
2022-08-24T07:36:21.899Z,25.20
2022-08-24T07:41:51.364Z,25.40
2022-08-24T07:46:43.359Z,25.60
2022-08-24T07:51:43.781Z,25.70
2022-08-24T07:56:45.301Z,25.80
2022-08-24T08:01:45.953Z,26.10
2022-08-24T08:06:44.505Z,26.10
2022-08-24T08:11:43.108Z,26.40
2022-08-24T08:16:41.620Z,26.50
2022-08-24T08:22:02.756Z,26.70
2022-08-24T08:27:05.187Z,26.90
2022-08-24T08:32:14.664Z,27.10
2022-08-24T08:37:15.094Z,27.20
2022-08-24T08:42:41.510Z,27.40
2022-08-24T08:48:32.009Z,27.60
2022-08-24T08:54:09.158Z,27.70
2022-08-24T08:59:28.040Z,28.00
2022-08-24T09:04:48.774Z,28.30
2022-08-24T09:10:03.373Z,28.60
2022-08-24T09:15:18.576Z,28.80
2022-08-24T09:20:35.763Z,28.90
2022-08-24T09:25:41.288Z,29.00
2022-08-24T09:31:23.123Z,29.10
2022-08-24T09:36:31.207Z,29.20
2022-08-24T09:41:54.627Z,29.40
2022-08-24T09:47:32.818Z,29.70
2022-08-24T09:53:21.774Z,29.90
2022-08-24T09:58:35.357Z,30.00
2022-08-24T10:03:52.325Z,30.30
2022-08-24T10:09:09.388Z,30.50
2022-08-24T10:14:18.043Z,30.60
2022-08-24T10:19:37.762Z,30.90
2022-08-24T10:24:47.100Z,31.10
2022-08-24T10:30:15.229Z,31.20
2022-08-24T10:35:28.214Z,31.30
2022-08-24T10:40:36.894Z,31.40
2022-08-24T10:46:03.646Z,31.50
2022-08-24T10:51:17.889Z,31.60
2022-08-24T10:56:20.172Z,31.80
2022-08-24T11:01:27.773Z,32.00
2022-08-24T11:06:30.883Z,32.10
2022-08-24T11:11:32.615Z,32.10
2022-08-24T11:16:34.542Z,32.20
2022-08-24T11:21:42.205Z,32.40
2022-08-24T11:26:53.698Z,32.50
2022-08-24T11:31:54.185Z,32.60
2022-08-24T11:36:53.834Z,32.70
2022-08-24T11:42:00.108Z,32.90
2022-08-24T11:47:06.635Z,33.10
2022-08-24T11:52:13.172Z,33.20
2022-08-24T11:57:16.463Z,33.40
2022-08-24T12:02:23.941Z,33.40
2022-08-24T12:07:33.481Z,33.60
2022-08-24T12:12:38.804Z,33.70
2022-08-24T12:17:45.199Z,33.80
2022-08-24T12:22:47.728Z,33.90
2022-08-24T12:27:46.521Z,34.00
2022-08-24T12:32:49.863Z,34.10
2022-08-24T12:37:53.726Z,34.20
2022-08-24T12:42:56.413Z,34.20
2022-08-24T12:48:01.613Z,34.30
2022-08-24T12:53:40.670Z,34.40
2022-08-24T12:59:03.285Z,34.50
2022-08-24T13:04:10.298Z,34.20
2022-08-24T13:09:16.375Z,34.30
2022-08-24T13:14:21.369Z,34.40
2022-08-24T13:19:39.118Z,34.50
2022-08-24T13:24:48.150Z,34.50
2022-08-24T13:29:54.694Z,34.40
2022-08-24T13:34:53.549Z,34.40
2022-08-24T13:40:08.049Z,34.30
2022-08-24T13:45:24.713Z,34.20
2022-08-24T13:50:34.088Z,34.20
2022-08-24T13:55:45.055Z,34.10
2022-08-24T14:00:48.630Z,34.00
2022-08-24T14:05:51.336Z,33.90
2022-08-24T14:11:05.051Z,33.70
2022-08-24T14:16:28.996Z,33.50
2022-08-24T14:21:41.272Z,33.40
2022-08-24T14:27:09.889Z,33.20
2022-08-24T14:32:31.758Z,33.00
2022-08-24T14:37:39.183Z,32.90
2022-08-24T14:42:43.000Z,32.70
2022-08-24T14:47:57.708Z,32.60
2022-08-24T14:53:10.320Z,32.40
2022-08-24T14:58:23.766Z,32.30
2022-08-24T15:03:49.106Z,32.20
2022-08-24T15:08:47.759Z,32.20
2022-08-24T15:13:54.047Z,31.90
2022-08-24T15:19:04.696Z,31.60
2022-08-24T15:24:16.694Z,31.50
2022-08-24T15:29:20.076Z,31.50
2022-08-24T15:34:18.700Z,31.60
2022-08-24T15:39:26.981Z,31.50
2022-08-24T15:44:30.727Z,31.50
2022-08-24T15:49:31.372Z,31.40
2022-08-24T15:54:33.925Z,31.30
2022-08-24T15:59:46.938Z,31.20
2022-08-24T16:04:49.003Z,31.00
2022-08-24T16:09:47.639Z,30.90
2022-08-24T16:14:52.592Z,30.70
2022-08-24T16:19:53.612Z,30.70
2022-08-24T16:25:16.727Z,30.70
2022-08-24T16:30:24.795Z,30.60
2022-08-24T16:35:25.409Z,30.60
2022-08-24T16:40:24.683Z,30.60
2022-08-24T16:45:24.989Z,30.50
2022-08-24T16:50:27.577Z,30.40
2022-08-24T16:55:28.755Z,30.40
2022-08-24T17:00:29.268Z,30.40
2022-08-24T17:05:29.369Z,30.20
2022-08-24T17:10:29.752Z,30.00
2022-08-24T17:15:29.471Z,30.00
2022-08-24T17:20:27.818Z,30.00
2022-08-24T17:25:26.999Z,29.90
2022-08-24T17:30:30.854Z,29.80
2022-08-24T17:35:29.395Z,29.70
2022-08-24T17:40:29.915Z,29.60
2022-08-24T17:45:29.685Z,29.50
2022-08-24T17:50:28.606Z,29.40
2022-08-24T17:55:27.377Z,29.40
2022-08-24T18:00:26.030Z,29.30
2022-08-24T18:05:26.314Z,29.30
2022-08-24T18:10:28.215Z,29.20
2022-08-24T18:15:34.561Z,29.10
2022-08-24T18:20:40.661Z,29.00
2022-08-24T18:25:44.926Z,29.00
2022-08-24T18:30:44.075Z,28.90
2022-08-24T18:35:44.355Z,28.80
2022-08-24T18:40:52.487Z,28.70
2022-08-24T18:45:52.803Z,28.60
2022-08-24T18:50:53.539Z,28.50
2022-08-24T18:55:53.899Z,28.40
2022-08-24T19:00:52.775Z,28.30
2022-08-24T19:05:52.556Z,28.30
2022-08-24T19:10:51.701Z,28.20
2022-08-24T19:15:51.119Z,28.10
2022-08-24T19:20:54.209Z,28.00
2022-08-24T19:25:53.372Z,27.80
2022-08-24T19:30:54.511Z,27.70
2022-08-24T19:35:55.166Z,27.60
2022-08-24T19:40:53.626Z,27.50
2022-08-24T19:46:05.578Z,27.30
2022-08-24T19:51:07.382Z,27.20
2022-08-24T19:56:06.929Z,27.10
2022-08-24T20:01:11.681Z,27.00
2022-08-24T20:06:11.799Z,26.90
2022-08-24T20:11:10.465Z,26.80
2022-08-24T20:16:11.811Z,26.70
2022-08-24T20:21:17.294Z,26.60
2022-08-24T20:26:15.822Z,26.50
2022-08-24T20:31:15.049Z,26.40
2022-08-24T20:36:23.929Z,26.40
2022-08-24T20:41:22.436Z,26.30
2022-08-24T20:46:21.534Z,26.20
2022-08-24T20:51:19.879Z,26.10
2022-08-24T20:56:30.689Z,26.00
2022-08-24T21:01:30.125Z,25.90
2022-08-24T21:06:28.403Z,25.90
2022-08-24T21:11:29.443Z,25.80
2022-08-24T21:16:28.097Z,25.80
2022-08-24T21:21:26.477Z,25.70
2022-08-24T21:26:28.413Z,25.60
2022-08-24T21:31:26.807Z,25.50
2022-08-24T21:36:26.365Z,25.50
2022-08-24T21:41:24.835Z,25.50
2022-08-24T21:46:31.999Z,25.50
2022-08-24T21:51:30.405Z,25.40
2022-08-24T21:56:31.645Z,25.40
2022-08-24T22:01:31.448Z,25.30
2022-08-24T22:06:31.701Z,25.30
2022-08-24T22:11:30.729Z,25.20
2022-08-24T22:16:30.759Z,25.20
2022-08-24T22:21:36.122Z,25.10
2022-08-24T22:26:35.816Z,25.00
2022-08-24T22:31:38.251Z,25.00
2022-08-24T22:36:37.033Z,25.00
2022-08-24T22:41:35.895Z,24.90
2022-08-24T22:46:36.465Z,24.80
2022-08-24T22:51:35.620Z,24.90
2022-08-24T22:56:37.008Z,24.80
2022-08-24T23:01:38.889Z,24.80
2022-08-24T23:06:37.658Z,24.80
2022-08-24T23:11:35.958Z,24.80
2022-08-24T23:16:38.551Z,24.70
2022-08-24T23:21:36.944Z,24.70
2022-08-24T23:26:35.340Z,24.60
2022-08-24T23:31:33.893Z,24.60
2022-08-24T23:36:33.782Z,24.50
2022-08-24T23:41:34.077Z,24.50
2022-08-24T23:46:33.004Z,24.40
2022-08-24T23:51:31.653Z,24.40
2022-08-24T23:56:34.498Z,24.40
